ADDS METAR Data INFO
IDs: Format: Raw Decoded Include TAF

Data at: 0500 UTC 23 May 2017

KF00 230455Z AUTO 17003KT 10SM TS SCT048 17/14 A2995 RMK AO2 LTG DSNT W THRU NE
KF00 230435Z AUTO 16006KT 10SM CLR 17/14 A2994 RMK AO2 LTG DSNT N AND NW
KF00 230415Z AUTO 15004KT 10SM SCT120 17/14 A2994 RMK AO2 LTG DSNT N
KF00 230355Z AUTO 13004KT 10SM CLR 17/14 A2994 RMK AO2 LTG DSNT N AND NW
KF00 230335Z AUTO 12005KT 10SM CLR 18/14 A2994 RMK AO2 LTG DSNT N
KF00 230315Z AUTO 14005KT 10SM CLR 18/14 A2995 RMK AO2
KF00 230255Z AUTO 12005KT 10SM CLR 18/14 A2995 RMK AO2
KF00 230235Z AUTO 13007KT 10SM CLR 19/14 A2995 RMK AO2
KF00 230215Z AUTO 13007KT 10SM CLR 19/14 A2994 RMK AO2 LTG DSNT NW
KF00 230155Z AUTO 14006KT 10SM CLR 19/15 A2994 RMK AO2
KF00 230135Z AUTO 13011KT 10SM SCT070 20/15 A2993 RMK AO2 LTG DSNT NW
KF00 230115Z AUTO 14009KT 10SM SCT050 BKN070 21/15 A2993 RMK AO2
KF00 230055Z AUTO 13008KT 10SM OVC050 21/14 A2992 RMK AO2
KF00 230035Z AUTO 15008KT 10SM OVC050 22/14 A2993 RMK AO2 LTG DSNT NW
KF00 230015Z AUTO 13009KT 10SM OVC050 22/14 A2992 RMK AO2
KF00 222355Z AUTO 14006KT 10SM OVC050 23/14 A2992 RMK AO2 LTG DSNT NW
KF00 222335Z AUTO 14009KT 10SM OVC050 23/14 A2993 RMK AO2
KF00 222315Z AUTO 15007KT 10SM OVC050 23/14 A2993 RMK AO2
KF00 222255Z AUTO 16005KT 10SM OVC050 23/14 A2994 RMK AO2 LTG DSNT NW
KF00 222235Z AUTO 18006KT 10SM SCT043 BKN050 23/14 A2994 RMK AO2
KF00 222215Z AUTO 13009KT 10SM BKN043 BKN050 24/14 A2995 RMK AO2 LTG DSNT NW
KF00 222155Z AUTO 13007KT 10SM SCT043 SCT050 SCT065 24/14 A2996 RMK AO2
KF00 222135Z AUTO 12005KT 7SM SCT050 BKN065 25/14 A2996 RMK AO2
KF00 222115Z AUTO 14008KT 10SM SCT050 OVC065 24/14 A2997 RMK AO2
KF00 222055Z AUTO 14006KT 10SM SCT050 OVC065 23/14 A2997 RMK AO2
KF00 222035Z AUTO 14007KT 10SM SCT046 OVC065 23/15 A2998 RMK AO2
KF00 222015Z AUTO 12007KT 10SM SCT038 SCT044 OVC065 24/15 A2998 RMK AO2
KF00 221955Z AUTO 15006KT 10SM SCT041 OVC065 23/14 A2999 RMK AO2
KF00 221935Z AUTO 14009KT 10SM SCT039 OVC065 23/13 A3001 RMK AO2
KF00 221915Z AUTO 13011G15KT 090V150 10SM SCT039 OVC065 24/14 A3001 RMK AO2
KF00 221855Z AUTO 11009KT 070V130 10SM BKN065 24/13 A3002 RMK AO2
KF00 221835Z AUTO 11006KT 10SM SCT042 OVC055 23/13 A3003 RMK AO2
KF00 221815Z AUTO 11004KT 10SM SCT042 BKN055 OVC070 23/13 A3004 RMK AO2
KF00 221755Z AUTO 11006KT 10SM SCT042 OVC055 22/12 A3005 RMK AO2
KF00 221735Z AUTO 11008KT 10SM OVC055 23/13 A3006 RMK AO2
KF00 221715Z AUTO 12010G14KT 10SM SCT042 OVC055 24/14 A3007 RMK AO2
KF00 221655Z AUTO 10005KT 10SM BKN042 BKN055 23/13 A3008 RMK AO2
KF00 221635Z AUTO 15004KT 10SM CLR 23/13 A3008 RMK AO2
KF00 221615Z AUTO 11006KT 10SM CLR 23/13 A3008 RMK AO2
KF00 221555Z AUTO 12008KT 10SM CLR 22/12 A3009 RMK AO2
KF00 221535Z AUTO 13010KT 10SM SCT034 22/13 A3009 RMK AO2
KF00 221515Z AUTO 13010KT 10SM SCT034 21/13 A3010 RMK AO2
KF00 221455Z AUTO 12010KT 10SM SCT032 SCT045 20/12 A3010 RMK AO2
KF00 221435Z AUTO 11010KT 10SM OVC034 19/12 A3012 RMK AO2
KF00 221415Z AUTO 15010KT 10SM SCT034 OVC046 19/13 A3011 RMK AO2
KF00 221355Z AUTO 13010KT 10SM OVC046 19/13 A3011 RMK AO2
KF00 221335Z AUTO 14009KT 10SM OVC046 18/13 A3011 RMK AO2
KF00 221315Z AUTO 14011G14KT 10SM BKN046 18/13 A3011 RMK AO2
KF00 221255Z AUTO 14007KT 10SM CLR 18/13 A3010 RMK AO2
KF00 221235Z AUTO 11005KT 10SM CLR 17/13 A3010 RMK AO2
KF00 221215Z AUTO 00000KT 10SM CLR 16/13 A3010 RMK AO2
KF00 221155Z AUTO 03004KT 10SM SCT080 14/13 A3010 RMK AO2
KF00 221135Z AUTO 00000KT 10SM SCT080 15/13 A3010 RMK AO2
KF00 221115Z AUTO 18005KT 10SM SCT055 SCT075 15/12 A3010 RMK AO2
KF00 221055Z AUTO 18004KT 10SM BKN075 16/13 A3010 RMK AO2
KF00 221035Z AUTO 00000KT 10SM CLR 16/13 A3011 RMK AO2
KF00 221015Z AUTO 12003KT 10SM SCT120 15/13 A3011 RMK AO2
KF00 220955Z AUTO 06003KT 10SM BKN110 15/12 A3011 RMK AO2
KF00 220935Z AUTO 10004KT 10SM OVC110 16/12 A3011 RMK AO2
KF00 220915Z AUTO 35003KT 10SM BKN110 16/12 A3011 RMK AO2
KF00 220855Z AUTO 00000KT 10SM BKN110 16/12 A3012 RMK AO2
KF00 220840Z AUTO 00000KT 10SM SCT110 16/12 A3012 RMK AO2
KF00 220815Z AUTO 35004KT 10SM CLR 15/12 A3012 RMK AO2
KF00 220755Z AUTO 00000KT 10SM CLR 16/12 A3012 RMK AO2
KF00 220735Z AUTO 01003KT 10SM CLR 16/12 A3012 RMK AO2
KF00 220715Z AUTO 12004KT 10SM CLR 16/12 A3012 RMK AO2
KF00 220655Z AUTO 33003KT 10SM SCT095 16/12 A3014 RMK AO2
KF00 220635Z AUTO 12003KT 10SM BKN095 17/11 A3014 RMK AO2
KF00 220615Z AUTO 12005KT 10SM OVC095 18/11 A3015 RMK AO2
KF00 220555Z AUTO 00000KT 10SM BKN095 17/11 A3015 RMK AO2
KF00 220535Z AUTO 00000KT 10SM CLR 18/11 A3014 RMK AO2 LTG DSNT S
KF00 220515Z AUTO 00000KT 10SM CLR 18/10 A3014 RMK AO2
KF00 220455Z AUTO 07004KT 10SM CLR 18/10 A3013 RMK AO2 LTG DSNT S
KF00 220435Z AUTO 04006KT 10SM CLR 19/10 A3012 RMK AO2
KF00 220415Z AUTO 04010KT 10SM CLR 19/10 A3011 RMK AO2
KF00 220355Z AUTO 04008KT 10SM CLR 19/11 A3012 RMK AO2
KF00 220335Z AUTO 04006KT 10SM CLR 19/11 A3012 RMK AO2
KF00 220315Z AUTO 04007KT 10SM CLR 19/12 A3011 RMK AO2
KF00 220255Z AUTO 03006KT 10SM CLR 18/12 A3012 RMK AO2
KF00 220235Z AUTO 04003KT 10SM CLR 19/11 A3012 RMK AO2
KF00 220215Z AUTO 03005KT 10SM CLR 19/11 A3011 RMK AO2
KF00 220155Z AUTO 04003KT 10SM CLR 20/11 A3011 RMK AO2
KF00 220135Z AUTO 05004KT 10SM CLR 20/11 A3009 RMK AO2
KF00 220115Z AUTO 05003KT 10SM CLR 20/11 A3010 RMK AO2
KF00 220055Z AUTO 03004KT 10SM CLR 21/11 A3010 RMK AO2
KF00 220035Z AUTO 03004KT 10SM CLR 22/11 A3010 RMK AO2
KF00 220015Z AUTO 04006KT 10SM CLR 22/10 A3010 RMK AO2
KF00 212355Z AUTO 04006KT 10SM CLR 23/09 A3011 RMK AO2
KF00 212335Z AUTO 05008KT 10SM CLR 23/09 A3011 RMK AO2
KF00 212315Z AUTO 05008KT 10SM CLR 24/08 A3011 RMK AO2
KF00 212255Z AUTO 06010KT 10SM CLR 24/08 A3011 RMK AO2
KF00 212235Z AUTO 05010KT 10SM CLR 25/09 A3011 RMK AO2 LTG DSNT SE
KF00 212215Z AUTO 05008KT 10SM CLR 25/10 A3011 RMK AO2
KF00 212155Z AUTO 05008KT 10SM CLR 25/10 A3010 RMK AO2
KF00 212135Z AUTO 02009KT 10SM CLR 25/09 A3011 RMK AO2
KF00 212115Z AUTO 03009KT 10SM CLR 25/10 A3011 RMK AO2
KF00 212055Z AUTO 04010G14KT 10SM CLR 25/10 A3011 RMK AO2
KF00 212035Z AUTO 05011KT 10SM CLR 26/10 A3012 RMK AO2
KF00 212015Z AUTO 36010KT 10SM CLR 24/11 A3012 RMK AO2
KF00 211955Z AUTO 03010KT 10SM CLR 25/11 A3013 RMK AO2
KF00 211935Z AUTO 01006KT 10SM CLR 25/11 A3013 RMK AO2
KF00 211915Z AUTO 01008KT 10SM CLR 25/10 A3014 RMK AO2
KF00 211855Z AUTO 02011G14KT 10SM CLR 24/11 A3016 RMK AO2
KF00 211835Z AUTO 01007KT 10SM CLR 24/11 A3016 RMK AO2
KF00 211815Z AUTO 07010G14KT 10SM CLR 23/10 A3016 RMK AO2 LTG DSNT S
KF00 211755Z AUTO 06011KT 10SM CLR 23/10 A3016 RMK AO2 LTG DSNT SE AND S
KF00 211735Z AUTO 03010KT 10SM CLR 23/10 A3017 RMK AO2
KF00 211715Z AUTO 04012G15KT 10SM CLR 22/11 A3017 RMK AO2


Page loaded:  05:00 UTC  |   10:00 PM Pacific  |   11:00 PM Mountain  |   12:00 AM Central  |   01:00 AM Eastern

 

ADVISORIES

FORECASTS

FORECASTS

OBSERVATIONS

USER TOOLS

ABOUT US